createdAt,value
2022-09-02T00:01:40.583Z,99.90
2022-09-02T00:04:14.281Z,99.90
2022-09-02T00:06:42.949Z,99.90
2022-09-02T00:09:13.390Z,99.90
2022-09-02T00:11:42.087Z,99.90
2022-09-02T00:14:13.134Z,99.90
2022-09-02T00:16:41.905Z,99.90
2022-09-02T00:19:09.106Z,99.90
2022-09-02T00:21:36.261Z,99.90
2022-09-02T00:24:05.576Z,99.90
2022-09-02T00:26:32.958Z,99.90
2022-09-02T00:28:59.851Z,99.90
2022-09-02T00:31:29.132Z,99.90
2022-09-02T00:33:56.525Z,99.90
2022-09-02T00:36:23.515Z,99.90
2022-09-02T00:38:51.566Z,99.90
2022-09-02T00:41:21.750Z,99.90
2022-09-02T00:44:04.696Z,99.90
2022-09-02T00:46:32.959Z,99.90
2022-09-02T00:49:31.102Z,99.90
2022-09-02T00:52:07.783Z,99.90
2022-09-02T00:54:40.133Z,99.90
2022-09-02T00:57:13.329Z,99.90
2022-09-02T00:59:58.931Z,99.90
2022-09-02T01:02:28.613Z,99.90
2022-09-02T01:04:56.903Z,99.90
2022-09-02T01:07:27.212Z,99.90
2022-09-02T01:09:58.153Z,99.90
2022-09-02T01:12:27.833Z,99.90
2022-09-02T01:14:54.657Z,99.90
2022-09-02T01:17:21.569Z,99.90
2022-09-02T01:19:53.337Z,99.90
2022-09-02T01:22:26.640Z,99.90
2022-09-02T01:24:56.227Z,99.90
2022-09-02T01:27:24.282Z,99.90
2022-09-02T01:29:57.778Z,99.90
2022-09-02T01:32:25.916Z,99.90
2022-09-02T01:34:53.628Z,99.90
2022-09-02T01:37:21.535Z,99.90
2022-09-02T01:39:49.433Z,99.90
2022-09-02T01:42:16.690Z,99.90
2022-09-02T01:44:46.496Z,99.90
2022-09-02T01:47:23.458Z,99.90
2022-09-02T01:49:51.324Z,99.90
2022-09-02T01:52:20.183Z,99.90
2022-09-02T01:54:47.012Z,99.90
2022-09-02T01:57:14.783Z,99.90
2022-09-02T01:59:43.806Z,99.90
2022-09-02T02:02:10.703Z,99.90
2022-09-02T02:04:38.778Z,99.90
2022-09-02T02:07:06.864Z,99.90
2022-09-02T02:09:33.747Z,99.90
2022-09-02T02:12:00.876Z,99.90
2022-09-02T02:14:27.730Z,99.90
2022-09-02T02:16:54.630Z,99.90
2022-09-02T02:19:21.585Z,99.90
2022-09-02T02:21:48.432Z,99.90
2022-09-02T02:24:15.438Z,99.90
2022-09-02T02:26:42.493Z,99.90
2022-09-02T02:29:10.113Z,99.90
2022-09-02T02:31:37.339Z,99.90
2022-09-02T02:34:04.762Z,99.90
2022-09-02T02:36:34.689Z,99.90
2022-09-02T02:39:01.634Z,99.90
2022-09-02T02:41:31.076Z,99.90
2022-09-02T02:43:57.937Z,99.90
2022-09-02T02:46:24.869Z,99.90
2022-09-02T02:48:51.708Z,99.90
2022-09-02T02:51:18.645Z,99.90
2022-09-02T02:53:45.506Z,99.90
2022-09-02T02:56:12.307Z,99.90
2022-09-02T02:58:39.127Z,99.90
2022-09-02T03:01:06.086Z,99.90
2022-09-02T03:03:33.222Z,99.90
2022-09-02T03:06:00.226Z,99.90
2022-09-02T03:08:27.247Z,99.90
2022-09-02T03:10:56.248Z,99.90
2022-09-02T03:13:25.096Z,99.90
2022-09-02T03:15:54.017Z,99.90
2022-09-02T03:18:21.000Z,99.90
2022-09-02T03:20:48.099Z,99.90
2022-09-02T03:23:15.549Z,99.90
2022-09-02T03:25:45.067Z,99.90
2022-09-02T03:28:12.837Z,99.90
2022-09-02T03:30:40.622Z,99.90
2022-09-02T03:33:10.135Z,99.90
2022-09-02T03:35:44.296Z,99.90
2022-09-02T03:38:12.514Z,99.90
2022-09-02T03:40:42.172Z,99.90
2022-09-02T03:43:09.210Z,99.90
2022-09-02T03:45:36.121Z,99.90
2022-09-02T03:48:03.606Z,99.90
2022-09-02T03:50:33.335Z,99.90
2022-09-02T03:53:00.516Z,99.90
2022-09-02T03:55:28.295Z,99.90
2022-09-02T03:57:55.708Z,99.90
2022-09-02T04:00:25.825Z,99.90
2022-09-02T04:02:55.344Z,99.90
2022-09-02T04:05:23.323Z,99.90
2022-09-02T04:07:53.741Z,99.90
2022-09-02T04:10:22.007Z,99.90
2022-09-02T04:12:49.879Z,99.90
2022-09-02T04:15:16.800Z,99.90
2022-09-02T04:18:40.214Z,99.90
2022-09-02T04:21:19.791Z,99.90
2022-09-02T04:23:47.360Z,99.90
2022-09-02T04:26:16.434Z,99.90
2022-09-02T04:28:43.678Z,99.90
2022-09-02T04:31:13.624Z,99.90
2022-09-02T04:33:40.564Z,99.90
2022-09-02T04:36:09.698Z,99.90
2022-09-02T04:38:39.976Z,99.90
2022-09-02T04:41:11.248Z,99.90
2022-09-02T04:43:38.288Z,99.90
2022-09-02T04:46:12.910Z,99.90
2022-09-02T04:48:40.415Z,99.90
2022-09-02T04:51:12.536Z,99.90
2022-09-02T04:53:40.587Z,99.90
2022-09-02T04:56:10.801Z,99.90
2022-09-02T04:58:38.516Z,99.90
2022-09-02T05:01:10.379Z,99.90
2022-09-02T05:03:37.799Z,99.90
2022-09-02T05:06:07.737Z,99.90
2022-09-02T05:08:37.987Z,99.90
2022-09-02T05:11:32.948Z,99.90
2022-09-02T05:14:02.739Z,99.90
2022-09-02T05:16:33.898Z,99.90
2022-09-02T05:19:00.992Z,99.90
2022-09-02T05:21:27.754Z,99.90
2022-09-02T05:23:54.792Z,99.90
2022-09-02T05:26:22.704Z,99.90
2022-09-02T05:28:50.562Z,99.90
2022-09-02T05:31:20.344Z,99.90
2022-09-02T05:33:48.310Z,99.90
2022-09-02T05:36:19.107Z,99.90
2022-09-02T05:38:47.021Z,99.90
2022-09-02T05:41:23.065Z,99.90
2022-09-02T05:43:51.487Z,99.90
2022-09-02T05:46:22.326Z,99.90
2022-09-02T05:49:08.673Z,99.90
2022-09-02T05:51:46.249Z,99.90
2022-09-02T05:54:24.104Z,99.90
2022-09-02T05:56:54.742Z,99.90
2022-09-02T05:59:23.166Z,99.90
2022-09-02T06:01:51.088Z,99.90
2022-09-02T06:04:17.987Z,99.90
2022-09-02T06:06:44.968Z,99.90
2022-09-02T06:09:14.487Z,99.90
2022-09-02T06:11:45.416Z,99.90
2022-09-02T06:14:17.824Z,99.90
2022-09-02T06:16:45.250Z,99.90
2022-09-02T06:19:15.359Z,99.90
2022-09-02T06:21:46.476Z,99.90
2022-09-02T06:24:13.916Z,99.90
2022-09-02T06:26:41.809Z,99.90
2022-09-02T06:29:09.643Z,99.90
2022-09-02T06:31:36.827Z,99.90
2022-09-02T06:34:04.758Z,99.90
2022-09-02T06:36:32.061Z,99.90
2022-09-02T06:39:00.534Z,99.90
2022-09-02T06:41:29.960Z,99.90
2022-09-02T06:43:59.265Z,99.90
2022-09-02T06:46:30.231Z,99.90
2022-09-02T06:48:57.274Z,99.90
2022-09-02T06:51:26.907Z,99.90
2022-09-02T06:53:54.092Z,99.90
2022-09-02T06:56:20.948Z,99.90
2022-09-02T06:58:47.981Z,99.90
2022-09-02T07:01:23.515Z,99.90
2022-09-02T07:04:09.521Z,99.90
2022-09-02T07:06:42.391Z,99.90
2022-09-02T07:09:11.413Z,99.90
2022-09-02T07:11:38.942Z,99.90
2022-09-02T07:14:06.739Z,99.90
2022-09-02T07:16:37.271Z,99.90
2022-09-02T07:19:07.351Z,99.90
2022-09-02T07:21:36.994Z,99.90
2022-09-02T07:24:04.201Z,99.90
2022-09-02T07:26:31.213Z,99.90
2022-09-02T07:28:58.483Z,99.90
2022-09-02T07:31:27.455Z,99.90
2022-09-02T07:33:58.785Z,99.90
2022-09-02T07:36:27.107Z,99.90
2022-09-02T07:38:55.035Z,99.90
2022-09-02T07:41:22.968Z,99.90
2022-09-02T07:43:51.780Z,99.90
2022-09-02T07:46:19.556Z,99.90
2022-09-02T07:48:50.199Z,99.90
2022-09-02T07:51:19.260Z,99.90
2022-09-02T07:53:46.452Z,99.90
2022-09-02T07:56:14.049Z,99.90
2022-09-02T07:58:42.358Z,99.90
2022-09-02T08:01:09.755Z,99.90
2022-09-02T08:03:39.604Z,99.90
2022-09-02T08:06:07.420Z,99.90
2022-09-02T08:08:34.886Z,99.80
2022-09-02T08:13:35.643Z,99.10
2022-09-02T08:16:03.353Z,99.50
2022-09-02T08:18:30.731Z,98.10
2022-09-02T08:20:57.721Z,98.10
2022-09-02T08:23:36.659Z,98.80
2022-09-02T08:26:05.736Z,97.20
2022-09-02T08:28:33.020Z,97.40
2022-09-02T08:31:04.216Z,98.60
2022-09-02T08:33:31.063Z,97.90
2022-09-02T08:36:06.182Z,98.10
2022-09-02T08:38:33.164Z,96.40
2022-09-02T08:41:00.997Z,96.60
2022-09-02T08:43:40.474Z,96.50
2022-09-02T08:46:12.208Z,95.80
2022-09-02T08:48:45.728Z,95.30
2022-09-02T08:51:53.783Z,95.50
2022-09-02T08:54:30.503Z,94.50
2022-09-02T08:56:58.208Z,94.50
2022-09-02T08:59:27.561Z,94.70
2022-09-02T09:02:09.309Z,94.10
2022-09-02T09:05:06.178Z,93.70
2022-09-02T09:07:40.864Z,92.60
2022-09-02T09:10:17.801Z,92.00
2022-09-02T09:13:20.203Z,91.80
2022-09-02T09:16:06.367Z,91.70
2022-09-02T09:18:39.529Z,92.40
2022-09-02T09:21:11.284Z,91.40
2022-09-02T09:23:39.717Z,91.30
2022-09-02T09:26:23.481Z,90.30
2022-09-02T09:28:50.682Z,90.90
2022-09-02T09:31:20.227Z,91.00
2022-09-02T09:34:12.313Z,90.80
2022-09-02T09:36:44.925Z,90.10
2022-09-02T09:39:30.276Z,89.60
2022-09-02T09:42:02.916Z,90.00
2022-09-02T09:44:45.252Z,90.90
2022-09-02T09:47:29.407Z,90.70
2022-09-02T09:50:17.347Z,88.50
2022-09-02T09:52:44.504Z,84.10
2022-09-02T09:55:12.904Z,85.30
2022-09-02T09:57:45.730Z,81.10
2022-09-02T10:00:32.084Z,79.10
2022-09-02T10:03:01.644Z,80.90
2022-09-02T10:05:32.832Z,79.60
2022-09-02T10:08:09.990Z,80.50
2022-09-02T10:10:55.131Z,81.50
2022-09-02T10:13:27.119Z,79.90
2022-09-02T10:16:31.740Z,80.30
2022-09-02T10:19:04.851Z,79.60
2022-09-02T10:21:56.685Z,78.20
2022-09-02T10:24:55.262Z,76.20
2022-09-02T10:27:40.929Z,77.00
2022-09-02T10:30:29.035Z,76.50
2022-09-02T10:33:01.754Z,77.70
2022-09-02T10:35:44.025Z,76.10
2022-09-02T10:38:10.822Z,75.40
2022-09-02T10:40:47.162Z,78.50
2022-09-02T10:43:33.565Z,77.00
2022-09-02T10:46:04.528Z,77.30
2022-09-02T10:49:10.917Z,78.50
2022-09-02T10:51:48.320Z,78.50
2022-09-02T10:54:50.322Z,78.20
2022-09-02T10:57:25.995Z,77.60
2022-09-02T10:59:54.879Z,76.70
2022-09-02T11:02:44.843Z,76.70
2022-09-02T11:05:29.643Z,76.40
2022-09-02T11:08:09.777Z,77.40
2022-09-02T11:11:08.317Z,76.20
2022-09-02T11:14:02.971Z,77.00
2022-09-02T11:16:46.041Z,75.10
2022-09-02T11:19:32.802Z,77.60
2022-09-02T11:22:27.322Z,77.00
2022-09-02T11:25:16.460Z,75.40
2022-09-02T11:27:49.492Z,74.50
2022-09-02T11:30:21.527Z,74.50
2022-09-02T11:33:13.142Z,73.10
2022-09-02T11:35:40.029Z,72.40
2022-09-02T11:38:36.505Z,73.60
2022-09-02T11:41:37.927Z,72.30
2022-09-02T11:44:14.718Z,72.70
2022-09-02T11:47:09.144Z,72.10
2022-09-02T11:49:36.063Z,75.40
2022-09-02T11:55:19.748Z,74.50
2022-09-02T11:57:55.038Z,74.10
2022-09-02T12:01:05.371Z,73.70
2022-09-02T12:03:51.860Z,73.00
2022-09-02T12:06:22.907Z,74.60
2022-09-02T12:08:50.607Z,73.10
2022-09-02T12:11:38.433Z,73.90
2022-09-02T12:14:07.972Z,75.00
2022-09-02T12:16:44.333Z,73.30
2022-09-02T12:19:11.789Z,74.70
2022-09-02T12:22:16.770Z,75.40
2022-09-02T12:24:53.941Z,76.10
2022-09-02T12:27:31.747Z,75.00
2022-09-02T12:29:59.125Z,74.00
2022-09-02T12:32:45.177Z,74.20
2022-09-02T12:35:31.419Z,74.00
2022-09-02T12:38:16.859Z,74.80
2022-09-02T12:40:54.912Z,75.00
2022-09-02T12:43:32.449Z,75.10
2022-09-02T12:46:17.941Z,74.70
2022-09-02T12:49:17.286Z,73.70
2022-09-02T12:51:54.922Z,73.10
2022-09-02T12:54:47.788Z,73.20
2022-09-02T12:57:16.963Z,74.40
2022-09-02T12:59:45.863Z,71.60
2022-09-02T13:02:36.120Z,72.20
2022-09-02T13:05:15.950Z,71.40
2022-09-02T13:08:02.566Z,71.70
2022-09-02T13:10:57.562Z,69.70
2022-09-02T13:14:01.907Z,68.20
2022-09-02T13:16:53.360Z,69.10
2022-09-02T13:19:38.607Z,69.30
2022-09-02T13:23:10.032Z,69.30
2022-09-02T13:26:48.484Z,70.80
2022-09-02T13:29:24.984Z,72.00
2022-09-02T13:32:15.924Z,72.70
2022-09-02T13:34:49.459Z,73.70
2022-09-02T13:37:37.121Z,73.20
2022-09-02T13:40:25.615Z,73.00
2022-09-02T13:42:55.309Z,75.00
2022-09-02T13:45:27.249Z,72.30
2022-09-02T13:47:59.605Z,71.80
2022-09-02T13:50:30.009Z,71.60
2022-09-02T13:55:57.420Z,73.90
2022-09-02T13:58:30.937Z,74.20
2022-09-02T14:01:17.113Z,74.20
2022-09-02T14:03:50.347Z,74.60
2022-09-02T14:06:22.665Z,73.50
2022-09-02T14:08:58.575Z,73.60
2022-09-02T14:11:26.312Z,74.20
2022-09-02T14:13:54.928Z,74.40
2022-09-02T14:16:33.419Z,73.90
2022-09-02T14:19:04.543Z,75.20
2022-09-02T14:21:32.736Z,76.30
2022-09-02T14:23:59.869Z,75.70
2022-09-02T14:26:41.131Z,75.10
2022-09-02T14:29:12.345Z,74.10
2022-09-02T14:31:39.217Z,75.50
2022-09-02T14:34:31.972Z,74.80
2022-09-02T14:36:58.784Z,73.80
2022-09-02T14:39:25.602Z,74.80
2022-09-02T14:41:56.301Z,75.00
2022-09-02T14:44:36.421Z,75.00
2022-09-02T14:47:12.875Z,75.30
2022-09-02T14:49:53.133Z,76.00
2022-09-02T14:52:27.818Z,76.50
2022-09-02T14:54:56.587Z,77.00
2022-09-02T14:57:38.141Z,75.90
2022-09-02T15:00:18.605Z,75.30
2022-09-02T15:02:56.915Z,74.70
2022-09-02T15:05:24.632Z,75.90
2022-09-02T15:07:51.519Z,77.20
2022-09-02T15:10:18.421Z,75.40
2022-09-02T15:12:52.316Z,76.20
2022-09-02T15:15:19.377Z,76.10
2022-09-02T15:17:49.237Z,77.20
2022-09-02T15:20:16.626Z,77.40
2022-09-02T15:22:43.605Z,77.30
2022-09-02T15:25:10.674Z,77.90
2022-09-02T15:27:37.984Z,78.20
2022-09-02T15:30:06.635Z,79.30
2022-09-02T15:32:33.831Z,77.70
2022-09-02T15:35:00.640Z,77.30
2022-09-02T15:37:27.959Z,76.60
2022-09-02T15:39:54.914Z,76.80
2022-09-02T15:42:22.009Z,76.90
2022-09-02T15:44:48.935Z,76.30
2022-09-02T15:47:15.725Z,77.30
2022-09-02T15:49:42.609Z,76.50
2022-09-02T15:52:09.594Z,77.00
2022-09-02T15:54:36.376Z,76.20
2022-09-02T15:57:03.302Z,76.60
2022-09-02T15:59:30.170Z,77.40
2022-09-02T16:01:58.804Z,76.90
2022-09-02T16:04:27.441Z,77.20
2022-09-02T16:06:54.329Z,76.50
2022-09-02T16:09:21.810Z,75.90
2022-09-02T16:11:51.778Z,75.60
2022-09-02T16:14:20.665Z,76.10
2022-09-02T16:16:49.452Z,76.80
2022-09-02T16:19:18.685Z,76.10
2022-09-02T16:21:45.563Z,76.60
2022-09-02T16:24:12.443Z,77.70
2022-09-02T16:26:41.334Z,77.60
2022-09-02T16:29:10.886Z,77.40
2022-09-02T16:31:39.540Z,77.80
2022-09-02T16:34:10.110Z,78.40
2022-09-02T16:36:42.765Z,77.70
2022-09-02T16:39:11.815Z,77.90
2022-09-02T16:41:44.456Z,78.50
2022-09-02T16:44:15.985Z,77.80
2022-09-02T16:46:44.211Z,77.90
2022-09-02T16:49:13.668Z,77.50
2022-09-02T16:51:41.002Z,77.90
2022-09-02T16:54:09.625Z,77.80
2022-09-02T16:56:44.947Z,78.60
2022-09-02T16:59:12.929Z,78.80
2022-09-02T17:01:40.881Z,79.10
2022-09-02T17:04:09.020Z,79.60
2022-09-02T17:06:41.339Z,80.30
2022-09-02T17:09:09.727Z,80.20
2022-09-02T17:11:39.847Z,80.60
2022-09-02T17:14:09.523Z,81.20
2022-09-02T17:16:39.541Z,81.40
2022-09-02T17:19:07.588Z,81.30
2022-09-02T17:21:41.393Z,81.00
2022-09-02T17:24:10.317Z,80.90
2022-09-02T17:26:39.608Z,80.80
2022-09-02T17:29:26.306Z,79.90
2022-09-02T17:31:59.477Z,80.00
2022-09-02T17:34:26.676Z,80.20
2022-09-02T17:36:53.683Z,80.20
2022-09-02T17:39:21.753Z,80.50
2022-09-02T17:41:54.532Z,80.50
2022-09-02T17:44:36.364Z,80.80
2022-09-02T17:47:16.017Z,81.20
2022-09-02T17:49:44.490Z,81.40
2022-09-02T17:52:14.300Z,81.20
2022-09-02T17:54:41.699Z,81.50
2022-09-02T17:57:17.593Z,81.70
2022-09-02T18:00:02.737Z,81.80
2022-09-02T18:03:03.061Z,81.80
2022-09-02T18:05:50.123Z,81.90
2022-09-02T18:08:52.678Z,82.10
2022-09-02T18:11:20.500Z,82.50
2022-09-02T18:14:14.542Z,82.60
2022-09-02T18:17:28.493Z,83.00
2022-09-02T18:19:58.096Z,83.40
2022-09-02T18:23:06.655Z,83.70
2022-09-02T18:26:07.100Z,84.00
2022-09-02T18:28:56.883Z,84.40
2022-09-02T18:32:00.318Z,84.60
2022-09-02T18:34:46.242Z,84.60
2022-09-02T18:38:04.211Z,85.30
2022-09-02T18:40:55.330Z,85.40
2022-09-02T18:43:40.741Z,85.60
2022-09-02T18:46:09.482Z,86.10
2022-09-02T18:48:38.772Z,86.20
2022-09-02T18:51:11.784Z,86.20
2022-09-02T18:53:45.548Z,86.30
2022-09-02T18:56:13.368Z,86.60
2022-09-02T18:58:47.020Z,86.60
2022-09-02T19:01:30.194Z,87.20
2022-09-02T19:04:00.854Z,86.50
2022-09-02T19:06:34.392Z,86.40
2022-09-02T19:09:13.685Z,86.80
2022-09-02T19:11:41.495Z,86.70
2022-09-02T19:14:08.309Z,86.40
2022-09-02T19:16:37.948Z,86.60
2022-09-02T19:19:06.662Z,86.70
2022-09-02T19:21:47.313Z,86.70
2022-09-02T19:24:21.447Z,86.70
2022-09-02T19:26:49.279Z,86.90
2022-09-02T19:29:17.168Z,87.20
2022-09-02T19:31:46.885Z,87.20
2022-09-02T19:34:16.281Z,87.40
2022-09-02T19:36:46.419Z,87.50
2022-09-02T19:39:13.524Z,88.20
2022-09-02T19:41:40.530Z,88.60
2022-09-02T19:44:07.637Z,88.80
2022-09-02T19:47:15.307Z,88.90
2022-09-02T19:49:21.867Z,89.20
2022-09-02T19:51:49.263Z,90.00
2022-09-02T19:54:18.429Z,89.80
2022-09-02T19:56:45.714Z,89.80
2022-09-02T19:59:13.633Z,90.20
2022-09-02T20:01:40.635Z,90.20
2022-09-02T20:04:07.859Z,90.30
2022-09-02T20:06:35.051Z,90.60
2022-09-02T20:09:01.938Z,90.60
2022-09-02T20:11:29.549Z,90.80
2022-09-02T20:13:56.912Z,90.80
2022-09-02T20:16:26.479Z,90.90
2022-09-02T20:18:54.428Z,91.20
2022-09-02T20:21:28.075Z,91.40
2022-09-02T20:24:01.324Z,91.40
2022-09-02T20:27:00.486Z,91.50
2022-09-02T20:29:27.397Z,91.70
2022-09-02T20:32:24.357Z,91.80
2022-09-02T20:35:04.038Z,91.90
2022-09-02T20:37:34.421Z,92.00
2022-09-02T20:40:05.073Z,92.00
2022-09-02T20:42:53.475Z,92.20
2022-09-02T20:45:48.021Z,92.30
2022-09-02T20:48:32.559Z,92.40
2022-09-02T20:51:16.000Z,92.50
2022-09-02T20:54:08.845Z,92.60
2022-09-02T20:56:47.322Z,92.80
2022-09-02T20:59:17.020Z,92.70
2022-09-02T21:01:45.573Z,92.70
2022-09-02T21:04:21.530Z,92.70
2022-09-02T21:09:23.419Z,92.80
2022-09-02T21:12:04.037Z,92.90
2022-09-02T21:14:41.882Z,93.10
2022-09-02T21:17:30.785Z,93.30
2022-09-02T21:20:15.927Z,93.30
2022-09-02T21:22:48.431Z,93.50
2022-09-02T21:25:28.755Z,93.50
2022-09-02T21:28:03.540Z,93.60
2022-09-02T21:30:38.367Z,93.60
2022-09-02T21:33:09.846Z,93.80
2022-09-02T21:35:47.905Z,93.90
2022-09-02T21:38:16.945Z,94.20
2022-09-02T21:41:01.751Z,94.50
2022-09-02T21:43:28.730Z,94.70
2022-09-02T21:46:03.837Z,95.10
2022-09-02T21:49:02.196Z,95.30
2022-09-02T21:51:34.085Z,95.70
2022-09-02T21:54:11.345Z,96.00
2022-09-02T21:57:03.065Z,96.00
2022-09-02T21:59:46.008Z,96.20
2022-09-02T22:02:20.768Z,96.50
2022-09-02T22:05:04.016Z,96.60
2022-09-02T22:07:37.115Z,96.80
2022-09-02T22:10:13.706Z,96.80
2022-09-02T22:12:46.762Z,97.00
2022-09-02T22:15:15.748Z,97.10
2022-09-02T22:17:51.695Z,97.50
2022-09-02T22:20:32.048Z,97.50
2022-09-02T22:23:26.433Z,98.00
2022-09-02T22:26:05.744Z,97.70
2022-09-02T22:28:41.317Z,97.90
2022-09-02T22:31:12.836Z,98.00
2022-09-02T22:33:48.011Z,98.20
2022-09-02T22:36:36.666Z,98.30
2022-09-02T22:39:05.111Z,98.80
2022-09-02T22:41:36.024Z,98.70
2022-09-02T22:44:03.297Z,99.00
2022-09-02T22:46:59.306Z,99.20
2022-09-02T22:49:46.970Z,99.10
2022-09-02T22:52:48.219Z,99.50
2022-09-02T22:55:47.154Z,99.80
2022-09-02T22:58:21.432Z,99.80
2022-09-02T23:01:01.721Z,99.90
2022-09-02T23:03:57.183Z,99.90
2022-09-02T23:06:30.392Z,99.90
2022-09-02T23:09:08.555Z,99.90
2022-09-02T23:12:10.612Z,99.90
2022-09-02T23:15:04.266Z,99.90
2022-09-02T23:17:37.002Z,99.90
2022-09-02T23:20:42.555Z,99.90
2022-09-02T23:23:19.306Z,99.90
2022-09-02T23:26:04.254Z,99.90
2022-09-02T23:28:43.454Z,99.90
2022-09-02T23:31:32.658Z,99.90
2022-09-02T23:34:30.733Z,99.90
2022-09-02T23:37:13.263Z,99.90
2022-09-02T23:40:18.046Z,99.90
2022-09-02T23:42:46.868Z,99.90
2022-09-02T23:45:21.989Z,99.90
2022-09-02T23:47:58.237Z,99.90
2022-09-02T23:50:34.675Z,99.90
2022-09-02T23:53:20.577Z,99.90
2022-09-02T23:56:02.745Z,99.90
2022-09-02T23:58:48.660Z,99.90
